Atlanta, Indiana
Current Conditions -  °F | °C
As of 10:55 PM on Wednesday 22 Oct 2014 (Local Time) from KTYQ Reporting Station
Haze Haze  
Wind Chill: 42°   Ceiling: 700
Heat Index: 44°   Visibility: 1.2mi
Dew Point: 38°   Wind: 5mph
Humidity: 80%   Direction: 100°E
Pressure: 30.28"   Gusts: NA
Location:  40.22°N, 86.03°W
Report Text: KTYQ 230255Z AUTO 10004KT 1 1/4SM HZ VV007 07/04 A3028 RMK AO2 T00680035
Loading
Personal Weather Stations






























Interactive Weather Map
Tropical Storm Tracking
New forecast layout! Learn more

10-Day Weather Forecast

Advertisements
Track Severe Weather on mobile